Terminal Aerodrome Forecast
Issued by NWS

Home | Current Version | Previous Version | Text Only | Print | Product List | Glossary On
Versions: 1 2 3 4 5 6 7 8 9 10 11 12 13 14 15 16 17 18
000
FTUS43 KSGF 251300 AAA
TAFBBG
TAF AMD
KBBG 251357Z 2514/2612 16006KT P6SM SKC
      TEMPO 2515/2517 BKN015
     FM251700 16008KT P6SM SCT250=

USA.gov is the U.S. government's official web portal to all federal, state and local government web resources and services.